Flight Track Log - Related Links

Times and Time Zones

All times are in EDT time to prevent confusion due to time zone crossing. See the SWA1160 flight status page for this flight to view local times or setup timezone preferences in your user account.

Time Position Orientation Groundspeed Altitude Reporting Facility
EDT Latitude Longitude Course Direction KTS MPH feet Rate Location/Type
Sat 03:13:14 PM 34.1640 -118.3710 225° Southwest 207 238 2,600  Level FlightAware ADS-B
Sat 03:14:01 PM 34.1350 -118.4210 235° Southwest 268 308 4,700 3,205 Climbing FlightAware ADS-B
Sat 03:14:27 PM 34.1470 -118.4580 291° West 278 320 6,500 4,263 Climbing FlightAware ADS-B
Sat 03:14:39 PM 34.1610 -118.4690 327° Northwest 283 326 7,400 4,125 Climbing FlightAware ADS-B
Sat 03:14:59 PM 34.1850 -118.4830 334° Northwest 288 331 8,700 3,761 Climbing FlightAware ADS-B
Sat 03:15:46 PM 34.2430 -118.5180 333° Northwest 305 351 11,600 3,517 Climbing FlightAware ADS-B
Sat 03:16:26 PM 34.2960 -118.5510 333° Northwest 328 377 13,800 1,724 Climbing FlightAware ADS-B
Sat 03:17:13 PM 34.3620 -118.5910 333° Northwest 334 384 14,100 466 Climbing FlightAware ADS-B
Sat 03:18:09 PM 34.4400 -118.6390 333° Northwest 360 414 14,600 645 Climbing FlightAware ADS-B
Sat 03:18:46 PM 34.4960 -118.6720 334° Northwest 378 435 15,100 1,456 Climbing FlightAware ADS-B
Sat 03:19:52 PM 34.6020 -118.7370 333° Northwest 392 451 17,100 1,278 Climbing FlightAware ADS-B
Sat 03:20:34 PM 34.6700 -118.7790 333° Northwest 393 452 17,400 1,518 Climbing FlightAware ADS-B
Sat 03:21:15 PM 34.7380 -118.8210 333° Northwest 398 458 19,200 2,512 Climbing FlightAware ADS-B
Sat 03:22:00 PM 34.8110 -118.8680 332° Northwest 418 481 21,000 1,571 Climbing FlightAware ADS-B
Sat 03:22:39 PM 34.8680 -118.9150 326° Northwest 419 482 21,400 3,070 Climbing FlightAware ADS-B
Sat 03:23:26 PM 34.9490 -118.9800 327° Northwest 416 479 25,400 3,775 Climbing FlightAware ADS-B
Sat 03:24:08 PM 35.0170 -119.0360 326° Northwest 431 496 27,000 2,250 Climbing FlightAware ADS-B
Sat 03:24:38 PM 35.0670 -119.0780 325° Northwest 439 505 28,100 2,143 Climbing FlightAware ADS-B
Sat 03:25:18 PM 35.1330 -119.1370 324° Northwest 446 513 29,500 2,066 Climbing FlightAware ADS-B
Sat 03:25:39 PM 35.1610 -119.1800 309° West 446 513 30,200 2,531 Climbing FlightAware ADS-B
Sat 03:26:22 PM 35.2030 -119.2720 299° West 439 505 32,200 2,707 Climbing FlightAware ADS-B
Sat 03:27:01 PM 35.2420 -119.3570 299° West 431 496 33,900 2,351 Climbing FlightAware ADS-B
Sat 03:27:36 PM 35.2740 -119.4280 299° West 429 494 35,100 1,556 Climbing FlightAware ADS-B
Sat 03:28:22 PM 35.3190 -119.5270 299° West 431 496 36,000 628 Climbing FlightAware ADS-B
Sat 03:29:02 PM 35.3580 -119.6130 299° West 428 493 36,000  Level FlightAware ADS-B
Sat 03:29:44 PM 35.3980 -119.7030 299° West 429 494 36,000  Level FlightAware ADS-B
Sat 03:30:24 PM 35.4360 -119.7870 299° West 429 494 36,000  Level FlightAware ADS-B
Sat 03:31:10 PM 35.4800 -119.8850 299° West 429 494 36,000  Level FlightAware ADS-B
Sat 03:32:04 PM 35.5300 -119.9990 298° West 430 495 36,000  Level FlightAware ADS-B
Sat 03:32:36 PM 35.5610 -120.0680 299° West 430 495 36,000  Level FlightAware ADS-B
Sat 03:33:22 PM 35.6050 -120.1680 298° West 429 494 36,000  Level FlightAware ADS-B
Sat 03:34:05 PM 35.6460 -120.2610 299° West 430 495 36,000  Level FlightAware ADS-B
Sat 03:34:46 PM 35.6870 -120.3470 300° West 434 499 36,000  Level FlightAware ADS-B
Sat 03:35:20 PM 35.7290 -120.4080 310° West 437 503 36,000  Level FlightAware ADS-B
Sat 03:36:04 PM 35.7890 -120.4900 312° West 436 502 36,000  Level FlightAware ADS-B
Sat 03:36:26 PM 35.8180 -120.5300 312° West 436 502 36,000  Level FlightAware ADS-B
Sat 03:37:12 PM 35.8800 -120.6150 312° West 436 502 36,000  Level FlightAware ADS-B
Sat 03:37:42 PM 35.9210 -120.6720 312° West 435 501 36,000 -583 Level FlightAware ADS-B
Sat 03:38:24 PM 35.9760 -120.7480 312° West 435 501 35,300 -1,024 Descending FlightAware ADS-B
Sat 03:39:04 PM 36.0320 -120.8250 312° West 433 498 34,600 -1,263 Descending FlightAware ADS-B
Sat 03:39:40 PM 36.0800 -120.8920 312° West 428 493 33,700 -2,351 Descending FlightAware ADS-B
Sat 03:40:18 PM 36.1300 -120.9620 312° West 434 499 31,700 -3,162 Descending FlightAware ADS-B
Sat 03:40:54 PM 36.1780 -121.0290 312° West 437 503 29,800 -3,154 Descending FlightAware ADS-B
Sat 03:41:36 PM 36.2350 -121.1090 311° West 435 501 27,600 -2,860 Descending FlightAware ADS-B
Sat 03:42:20 PM 36.2930 -121.1890 312° West 424 488 25,700 -2,769 Descending FlightAware ADS-B
Sat 03:42:54 PM 36.3370 -121.2510 311° West 419 482 24,000 -3,000 Descending FlightAware ADS-B
Sat 03:43:34 PM 36.3870 -121.3220 311° West 418 481 22,000 -3,035 Descending FlightAware ADS-B
Sat 03:44:19 PM 36.4440 -121.4020 312° West 414 476 19,700 -2,925 Descending FlightAware ADS-B
Sat 03:44:54 PM 36.4940 -121.4540 320° Northwest 408 470 18,100 -2,921 Descending FlightAware ADS-B
Sat 03:45:35 PM 36.5580 -121.5100 325° Northwest 401 461 16,000 -3,140 Descending FlightAware ADS-B
Sat 03:46:20 PM 36.6260 -121.5700 325° Northwest 400 460 13,600 -2,883 Descending FlightAware ADS-B
Sat 03:46:52 PM 36.6750 -121.6100 327° Northwest 391 450 12,300 -2,351 Descending FlightAware ADS-B
Sat 03:47:34 PM 36.7440 -121.6490 336° Northwest 378 435 10,700 -1,465 Descending FlightAware ADS-B
Sat 03:48:18 PM 36.8100 -121.6870 335° Northwest 332 382 10,200 -659 Descending FlightAware ADS-B
Sat 03:48:56 PM 36.8600 -121.7160 335° Northwest 303 349 9,800 -1,164 Descending FlightAware ADS-B
Sat 03:49:25 PM 36.8960 -121.7370 335° Northwest 307 353 8,900 -1,778 Descending FlightAware ADS-B
Sat 03:49:50 PM 36.9280 -121.7560 335° Northwest 300 345 8,200 -941 Descending FlightAware ADS-B
Sat 03:50:16 PM 36.9600 -121.7740 336° Northwest 278 320 8,100 -474 Descending FlightAware ADS-B
Sat 03:50:28 PM 36.9740 -121.7820 335° Northwest 276 318 7,900 -1,050 Descending FlightAware ADS-B
Sat 03:50:56 PM 37.0070 -121.8020 334° Northwest 277 319 7,400 -900 Descending FlightAware ADS-B
Sat 03:51:08 PM 37.0200 -121.8090 337° Northwest 279 321 7,300 -900 Descending FlightAware ADS-B
Sat 03:51:36 PM 37.0540 -121.8290 335° Northwest 280 322 6,800 -1,000 Descending FlightAware ADS-B
Sat 03:52:08 PM 37.0910 -121.8510 335° Northwest 279 321 6,300 -1,038 Descending FlightAware ADS-B
Sat 03:52:28 PM 37.1140 -121.8640 336° Northwest 278 320 5,900 -1,000 Descending FlightAware ADS-B
Sat 03:52:44 PM 37.1330 -121.8750 335° Northwest 279 321 5,700 -933 Descending FlightAware ADS-B
Sat 03:53:13 PM 37.1660 -121.8950 334° Northwest 275 316 5,200 -577 Descending FlightAware ADS-B
Sat 03:53:36 PM 37.1930 -121.9120 333° Northwest 271 312 5,200 -118 Level FlightAware ADS-B
Sat 03:54:04 PM 37.2240 -121.9320 333° Northwest 256 295 5,100 -391 Descending FlightAware ADS-B
Sat 03:54:22 PM 37.2420 -121.9430 334° Northwest 243 280 4,900 -818 Descending FlightAware ADS-B
Sat 03:54:48 PM 37.2690 -121.9590 335° Northwest 240 276 4,500 -900 Descending FlightAware ADS-B
Sat 03:55:02 PM 37.2820 -121.9680 331° Northwest 236 272 4,300 -900 Descending FlightAware ADS-B
Sat 03:55:28 PM 37.3070 -121.9840 333° Northwest 233 268 3,900 -955 Descending FlightAware ADS-B
Sat 03:55:46 PM 37.3220 -121.9980 323° Northwest 230 265 3,600 -1,297 Descending FlightAware ADS-B
Sat 03:56:05 PM 37.3360 -122.0150 316° Northwest 216 249 3,100 -1,543 Descending FlightAware ADS-B
Sat 03:56:21 PM 37.3490 -122.0270 324° Northwest 210 242 2,700 -1,154 Descending FlightAware ADS-B
Sat 03:56:31 PM 37.3580 -122.0280 355° North 194 223 2,600 -750 Descending FlightAware ADS-B
Sat 03:57:01 PM 37.3810 -122.0150 24° Northeast 177 204 2,200 -1,034 Descending FlightAware ADS-B
Sat 03:57:29 PM 37.3960 -121.9960 45° Northeast 157 181 1,600 -1,364 Descending FlightAware ADS-B
Sat 03:57:45 PM 37.4000 -121.9830 69° East 155 178 1,200 -1,200 Descending FlightAware ADS-B
Sat 03:58:09 PM 37.3960 -121.9650 106° East 145 167 800 -960 Descending FlightAware ADS-B
Sat 03:58:35 PM 37.3810 -121.9500 142° Southeast 145 167 400 -692 Descending FlightAware ADS-B
Sat 03:59:01 PM 37.3770 -121.9450 135° Southeast 144 166 200 -222 Descending FlightAware ADS-B
Sat 03:59:29 PM 37.3650 -121.9320 139° Southeast 144 166 200  Level FlightAware ADS-B
Sat 04:06:00 PM 37.3627 -121.9291 North  Level Estimated
Sat 04:07:00 PM 37.3627 -121.9291 North  Level Estimated

Login

Don't have an account? Register now (free) for customized features, flight alerts, and more!